sensor_id;sensor_type;location;lat;lon;timestamp;P1;durP1;ratioP1;P2;durP2;ratioP2
47053;SDS011;32811;52.382;5.270;2024-03-17T00:00:20;8.38;;;3.83;;
47053;SDS011;32811;52.382;5.270;2024-03-17T00:02:48;10.93;;;3.53;;
47053;SDS011;32811;52.382;5.270;2024-03-17T00:05:15;22.67;;;4.28;;
47053;SDS011;32811;52.382;5.270;2024-03-17T00:07:41;8.35;;;4.00;;
47053;SDS011;32811;52.382;5.270;2024-03-17T00:10:07;16.80;;;4.53;;
47053;SDS011;32811;52.382;5.270;2024-03-17T00:12:33;9.23;;;4.40;;
47053;SDS011;32811;52.382;5.270;2024-03-17T00:14:59;12.20;;;5.47;;
47053;SDS011;32811;52.382;5.270;2024-03-17T00:17:25;16.42;;;5.85;;
47053;SDS011;32811;52.382;5.270;2024-03-17T00:19:51;16.65;;;7.22;;
47053;SDS011;32811;52.382;5.270;2024-03-17T00:22:16;13.00;;;5.03;;
47053;SDS011;32811;52.382;5.270;2024-03-17T00:24:42;10.18;;;5.75;;
47053;SDS011;32811;52.382;5.270;2024-03-17T00:27:08;15.15;;;6.15;;
47053;SDS011;32811;52.382;5.270;2024-03-17T00:29:35;13.07;;;7.18;;
47053;SDS011;32811;52.382;5.270;2024-03-17T00:32:00;14.00;;;5.38;;
47053;SDS011;32811;52.382;5.270;2024-03-17T00:34:26;8.88;;;5.35;;
47053;SDS011;32811;52.382;5.270;2024-03-17T00:36:52;11.45;;;4.90;;
47053;SDS011;32811;52.382;5.270;2024-03-17T00:39:17;14.80;;;5.65;;
47053;SDS011;32811;52.382;5.270;2024-03-17T00:41:45;13.68;;;4.95;;
47053;SDS011;32811;52.382;5.270;2024-03-17T00:44:11;9.05;;;4.85;;
47053;SDS011;32811;52.382;5.270;2024-03-17T00:46:37;11.60;;;5.25;;
47053;SDS011;32811;52.382;5.270;2024-03-17T00:49:08;13.60;;;4.78;;
47053;SDS011;32811;52.382;5.270;2024-03-17T00:51:35;9.52;;;4.63;;
47053;SDS011;32811;52.382;5.270;2024-03-17T00:54:01;13.48;;;5.10;;
47053;SDS011;32811;52.382;5.270;2024-03-17T00:56:27;14.07;;;5.03;;
47053;SDS011;32811;52.382;5.270;2024-03-17T00:58:53;7.30;;;5.13;;
47053;SDS011;32811;52.382;5.270;2024-03-17T01:01:18;9.80;;;4.93;;
47053;SDS011;32811;52.382;5.270;2024-03-17T01:03:47;9.73;;;4.97;;
47053;SDS011;32811;52.382;5.270;2024-03-17T01:06:13;11.30;;;5.65;;
47053;SDS011;32811;52.382;5.270;2024-03-17T01:08:39;10.73;;;4.80;;
47053;SDS011;32811;52.382;5.270;2024-03-17T01:11:04;10.50;;;4.95;;
47053;SDS011;32811;52.382;5.270;2024-03-17T01:13:34;15.18;;;5.78;;
47053;SDS011;32811;52.382;5.270;2024-03-17T01:16:02;10.13;;;4.88;;
47053;SDS011;32811;52.382;5.270;2024-03-17T01:18:29;15.40;;;5.78;;
47053;SDS011;32811;52.382;5.270;2024-03-17T01:20:54;14.40;;;6.72;;
47053;SDS011;32811;52.382;5.270;2024-03-17T01:23:20;13.85;;;5.72;;
47053;SDS011;32811;52.382;5.270;2024-03-17T01:25:46;10.20;;;4.38;;
47053;SDS011;32811;52.382;5.270;2024-03-17T01:28:11;12.50;;;5.50;;
47053;SDS011;32811;52.382;5.270;2024-03-17T01:30:37;12.68;;;4.80;;
47053;SDS011;32811;52.382;5.270;2024-03-17T01:33:03;10.70;;;5.43;;
47053;SDS011;32811;52.382;5.270;2024-03-17T01:35:30;10.90;;;5.13;;
47053;SDS011;32811;52.382;5.270;2024-03-17T01:37:56;11.25;;;5.10;;
47053;SDS011;32811;52.382;5.270;2024-03-17T01:40:22;7.80;;;4.25;;
47053;SDS011;32811;52.382;5.270;2024-03-17T01:42:47;13.68;;;5.25;;
47053;SDS011;32811;52.382;5.270;2024-03-17T01:45:26;13.10;;;4.82;;
47053;SDS011;32811;52.382;5.270;2024-03-17T01:47:54;13.45;;;4.60;;
47053;SDS011;32811;52.382;5.270;2024-03-17T01:50:23;11.20;;;4.70;;
47053;SDS011;32811;52.382;5.270;2024-03-17T01:52:53;11.88;;;5.28;;
47053;SDS011;32811;52.382;5.270;2024-03-17T01:55:25;10.05;;;4.95;;
47053;SDS011;32811;52.382;5.270;2024-03-17T01:57:52;8.50;;;5.55;;
47053;SDS011;32811;52.382;5.270;2024-03-17T02:00:18;8.88;;;4.55;;
47053;SDS011;32811;52.382;5.270;2024-03-17T02:02:44;7.28;;;4.00;;
47053;SDS011;32811;52.382;5.270;2024-03-17T02:05:10;12.77;;;5.43;;
47053;SDS011;32811;52.382;5.270;2024-03-17T02:07:36;6.57;;;4.05;;
47053;SDS011;32811;52.382;5.270;2024-03-17T02:10:02;17.00;;;5.68;;
47053;SDS011;32811;52.382;5.270;2024-03-17T02:12:31;12.07;;;4.47;;
47053;SDS011;32811;52.382;5.270;2024-03-17T02:14:57;7.50;;;4.22;;
47053;SDS011;32811;52.382;5.270;2024-03-17T02:17:23;10.25;;;3.95;;
47053;SDS011;32811;52.382;5.270;2024-03-17T02:19:51;12.23;;;4.20;;
47053;SDS011;32811;52.382;5.270;2024-03-17T02:22:20;10.50;;;3.42;;
47053;SDS011;32811;52.382;5.270;2024-03-17T02:24:45;14.02;;;4.25;;
47053;SDS011;32811;52.382;5.270;2024-03-17T02:27:11;8.85;;;5.07;;
47053;SDS011;32811;52.382;5.270;2024-03-17T02:29:38;9.27;;;3.63;;
47053;SDS011;32811;52.382;5.270;2024-03-17T02:32:05;10.15;;;4.13;;
47053;SDS011;32811;52.382;5.270;2024-03-17T02:34:34;6.80;;;2.95;;
47053;SDS011;32811;52.382;5.270;2024-03-17T02:37:00;11.77;;;4.15;;
47053;SDS011;32811;52.382;5.270;2024-03-17T02:39:31;12.30;;;3.58;;
47053;SDS011;32811;52.382;5.270;2024-03-17T02:42:03;7.15;;;3.20;;
47053;SDS011;32811;52.382;5.270;2024-03-17T02:44:33;9.02;;;3.42;;
47053;SDS011;32811;52.382;5.270;2024-03-17T02:46:59;7.68;;;3.30;;
47053;SDS011;32811;52.382;5.270;2024-03-17T02:49:26;10.55;;;3.67;;
47053;SDS011;32811;52.382;5.270;2024-03-17T02:51:53;10.13;;;3.60;;
47053;SDS011;32811;52.382;5.270;2024-03-17T02:54:20;8.65;;;3.40;;
47053;SDS011;32811;52.382;5.270;2024-03-17T02:56:46;6.90;;;3.33;;
47053;SDS011;32811;52.382;5.270;2024-03-17T02:59:12;7.63;;;2.85;;
47053;SDS011;32811;52.382;5.270;2024-03-17T03:01:38;7.43;;;3.63;;
47053;SDS011;32811;52.382;5.270;2024-03-17T03:04:03;13.43;;;4.82;;
47053;SDS011;32811;52.382;5.270;2024-03-17T03:06:29;9.57;;;3.78;;
47053;SDS011;32811;52.382;5.270;2024-03-17T03:08:55;8.77;;;3.80;;
47053;SDS011;32811;52.382;5.270;2024-03-17T03:11:21;14.63;;;3.70;;
47053;SDS011;32811;52.382;5.270;2024-03-17T03:13:47;13.32;;;3.53;;
47053;SDS011;32811;52.382;5.270;2024-03-17T03:16:13;7.75;;;3.22;;
47053;SDS011;32811;52.382;5.270;2024-03-17T03:18:43;7.20;;;3.20;;
47053;SDS011;32811;52.382;5.270;2024-03-17T03:21:10;11.65;;;3.75;;
47053;SDS011;32811;52.382;5.270;2024-03-17T03:23:36;9.15;;;3.05;;
47053;SDS011;32811;52.382;5.270;2024-03-17T03:26:02;7.05;;;3.15;;
47053;SDS011;32811;52.382;5.270;2024-03-17T03:28:29;8.10;;;3.63;;
47053;SDS011;32811;52.382;5.270;2024-03-17T03:30:56;5.80;;;3.10;;
47053;SDS011;32811;52.382;5.270;2024-03-17T03:33:22;5.38;;;2.78;;
47053;SDS011;32811;52.382;5.270;2024-03-17T03:35:47;7.60;;;2.88;;
47053;SDS011;32811;52.382;5.270;2024-03-17T03:38:14;7.07;;;3.22;;
47053;SDS011;32811;52.382;5.270;2024-03-17T03:40:43;12.35;;;4.30;;
47053;SDS011;32811;52.382;5.270;2024-03-17T03:43:09;9.75;;;4.32;;
47053;SDS011;32811;52.382;5.270;2024-03-17T03:45:35;9.52;;;3.60;;
47053;SDS011;32811;52.382;5.270;2024-03-17T03:48:01;5.93;;;3.25;;
47053;SDS011;32811;52.382;5.270;2024-03-17T03:50:28;6.22;;;3.95;;
47053;SDS011;32811;52.382;5.270;2024-03-17T03:52:54;5.70;;;3.80;;
47053;SDS011;32811;52.382;5.270;2024-03-17T03:55:20;8.05;;;3.28;;
47053;SDS011;32811;52.382;5.270;2024-03-17T03:57:48;8.20;;;3.78;;
47053;SDS011;32811;52.382;5.270;2024-03-17T04:00:20;9.85;;;4.15;;
47053;SDS011;32811;52.382;5.270;2024-03-17T04:02:49;12.32;;;3.75;;
47053;SDS011;32811;52.382;5.270;2024-03-17T04:05:17;6.50;;;3.97;;
47053;SDS011;32811;52.382;5.270;2024-03-17T04:07:43;6.95;;;3.72;;
47053;SDS011;32811;52.382;5.270;2024-03-17T04:10:11;6.97;;;3.58;;
47053;SDS011;32811;52.382;5.270;2024-03-17T04:12:38;6.90;;;4.30;;
47053;SDS011;32811;52.382;5.270;2024-03-17T04:15:04;9.02;;;4.38;;
47053;SDS011;32811;52.382;5.270;2024-03-17T04:17:31;13.30;;;5.00;;
47053;SDS011;32811;52.382;5.270;2024-03-17T04:19:58;10.68;;;5.78;;
47053;SDS011;32811;52.382;5.270;2024-03-17T04:22:29;6.82;;;4.25;;
47053;SDS011;32811;52.382;5.270;2024-03-17T04:25:02;10.70;;;4.30;;
47053;SDS011;32811;52.382;5.270;2024-03-17T04:27:36;12.10;;;4.28;;
47053;SDS011;32811;52.382;5.270;2024-03-17T04:30:03;11.35;;;5.13;;
47053;SDS011;32811;52.382;5.270;2024-03-17T04:32:35;14.82;;;6.03;;
47053;SDS011;32811;52.382;5.270;2024-03-17T04:35:04;9.15;;;4.85;;
47053;SDS011;32811;52.382;5.270;2024-03-17T04:37:32;12.98;;;5.15;;
47053;SDS011;32811;52.382;5.270;2024-03-17T04:40:10;11.57;;;4.25;;
47053;SDS011;32811;52.382;5.270;2024-03-17T04:42:41;5.65;;;4.30;;
47053;SDS011;32811;52.382;5.270;2024-03-17T04:45:13;10.82;;;5.57;;
47053;SDS011;32811;52.382;5.270;2024-03-17T04:50:34;6.57;;;4.40;;
47053;SDS011;32811;52.382;5.270;2024-03-17T04:53:17;6.65;;;4.35;;
47053;SDS011;32811;52.382;5.270;2024-03-17T04:55:43;7.57;;;4.07;;
47053;SDS011;32811;52.382;5.270;2024-03-17T04:58:09;7.45;;;4.95;;
47053;SDS011;32811;52.382;5.270;2024-03-17T05:00:44;7.05;;;4.88;;
47053;SDS011;32811;52.382;5.270;2024-03-17T05:03:24;10.32;;;4.30;;
47053;SDS011;32811;52.382;5.270;2024-03-17T05:06:06;9.50;;;4.57;;
47053;SDS011;32811;52.382;5.270;2024-03-17T05:08:33;11.25;;;4.97;;
47053;SDS011;32811;52.382;5.270;2024-03-17T05:11:05;11.05;;;5.03;;
47053;SDS011;32811;52.382;5.270;2024-03-17T05:13:47;7.30;;;5.55;;
47053;SDS011;32811;52.382;5.270;2024-03-17T05:16:13;10.55;;;5.00;;
47053;SDS011;32811;52.382;5.270;2024-03-17T05:18:38;11.98;;;5.53;;
47053;SDS011;32811;52.382;5.270;2024-03-17T05:21:19;11.63;;;5.18;;
47053;SDS011;32811;52.382;5.270;2024-03-17T05:23:51;7.50;;;5.38;;
47053;SDS011;32811;52.382;5.270;2024-03-17T05:26:17;10.88;;;5.18;;
47053;SDS011;32811;52.382;5.270;2024-03-17T05:28:51;11.45;;;5.20;;
47053;SDS011;32811;52.382;5.270;2024-03-17T05:31:17;11.82;;;5.90;;
47053;SDS011;32811;52.382;5.270;2024-03-17T05:33:53;7.63;;;5.65;;
47053;SDS011;32811;52.382;5.270;2024-03-17T05:36:18;10.93;;;5.63;;
47053;SDS011;32811;52.382;5.270;2024-03-17T05:39:00;9.20;;;4.95;;
47053;SDS011;32811;52.382;5.270;2024-03-17T05:41:30;7.25;;;5.40;;
47053;SDS011;32811;52.382;5.270;2024-03-17T05:44:00;9.02;;;5.00;;
47053;SDS011;32811;52.382;5.270;2024-03-17T05:46:28;6.00;;;4.65;;
47053;SDS011;32811;52.382;5.270;2024-03-17T05:48:57;8.50;;;5.32;;
47053;SDS011;32811;52.382;5.270;2024-03-17T05:54:11;10.13;;;5.78;;
47053;SDS011;32811;52.382;5.270;2024-03-17T05:56:45;7.15;;;4.50;;
47053;SDS011;32811;52.382;5.270;2024-03-17T05:59:11;9.15;;;5.38;;
47053;SDS011;32811;52.382;5.270;2024-03-17T06:01:41;8.15;;;5.30;;
47053;SDS011;32811;52.382;5.270;2024-03-17T06:04:33;17.40;;;6.20;;
47053;SDS011;32811;52.382;5.270;2024-03-17T06:06:59;9.80;;;5.25;;
47053;SDS011;32811;52.382;5.270;2024-03-17T06:09:25;11.52;;;5.97;;
47053;SDS011;32811;52.382;5.270;2024-03-17T06:11:58;11.27;;;5.47;;
47053;SDS011;32811;52.382;5.270;2024-03-17T06:14:27;7.18;;;4.95;;
47053;SDS011;32811;52.382;5.270;2024-03-17T06:17:02;9.20;;;4.97;;
47053;SDS011;32811;52.382;5.270;2024-03-17T06:19:50;6.65;;;3.78;;
47053;SDS011;32811;52.382;5.270;2024-03-17T06:22:19;8.77;;;4.75;;
47053;SDS011;32811;52.382;5.270;2024-03-17T06:24:54;14.32;;;5.90;;
47053;SDS011;32811;52.382;5.270;2024-03-17T06:27:35;8.07;;;5.32;;
47053;SDS011;32811;52.382;5.270;2024-03-17T06:30:01;6.10;;;5.50;;
47053;SDS011;32811;52.382;5.270;2024-03-17T06:32:33;7.15;;;4.57;;
47053;SDS011;32811;52.382;5.270;2024-03-17T06:35:01;11.45;;;5.35;;
47053;SDS011;32811;52.382;5.270;2024-03-17T06:37:43;10.75;;;5.22;;
47053;SDS011;32811;52.382;5.270;2024-03-17T06:40:12;7.40;;;5.80;;
47053;SDS011;32811;52.382;5.270;2024-03-17T06:42:44;11.52;;;5.50;;
47053;SDS011;32811;52.382;5.270;2024-03-17T06:45:10;13.88;;;5.65;;
47053;SDS011;32811;52.382;5.270;2024-03-17T06:47:36;7.32;;;5.25;;
47053;SDS011;32811;52.382;5.270;2024-03-17T06:50:29;11.25;;;5.60;;
47053;SDS011;32811;52.382;5.270;2024-03-17T06:52:55;12.93;;;6.15;;
47053;SDS011;32811;52.382;5.270;2024-03-17T06:55:24;8.80;;;5.03;;
47053;SDS011;32811;52.382;5.270;2024-03-17T06:58:05;8.25;;;6.15;;
47053;SDS011;32811;52.382;5.270;2024-03-17T07:00:43;8.85;;;4.85;;
47053;SDS011;32811;52.382;5.270;2024-03-17T07:03:09;5.55;;;4.72;;
47053;SDS011;32811;52.382;5.270;2024-03-17T07:05:38;6.28;;;4.97;;
47053;SDS011;32811;52.382;5.270;2024-03-17T07:08:06;7.07;;;5.18;;
47053;SDS011;32811;52.382;5.270;2024-03-17T07:10:35;7.57;;;5.90;;
47053;SDS011;32811;52.382;5.270;2024-03-17T07:13:07;6.82;;;6.15;;
47053;SDS011;32811;52.382;5.270;2024-03-17T07:15:33;8.02;;;5.47;;
47053;SDS011;32811;52.382;5.270;2024-03-17T07:18:02;7.25;;;6.22;;
47053;SDS011;32811;52.382;5.270;2024-03-17T07:20:33;8.23;;;5.75;;
47053;SDS011;32811;52.382;5.270;2024-03-17T07:22:59;14.77;;;5.38;;
47053;SDS011;32811;52.382;5.270;2024-03-17T07:25:33;6.40;;;5.32;;
47053;SDS011;32811;52.382;5.270;2024-03-17T07:27:59;8.98;;;5.40;;
47053;SDS011;32811;52.382;5.270;2024-03-17T07:30:27;8.57;;;5.43;;
47053;SDS011;32811;52.382;5.270;2024-03-17T07:33:02;10.55;;;5.65;;
47053;SDS011;32811;52.382;5.270;2024-03-17T07:38:45;9.32;;;5.18;;
47053;SDS011;32811;52.382;5.270;2024-03-17T07:41:14;6.18;;;5.22;;
47053;SDS011;32811;52.382;5.270;2024-03-17T07:43:46;8.43;;;5.80;;
47053;SDS011;32811;52.382;5.270;2024-03-17T07:46:20;7.35;;;5.60;;
47053;SDS011;32811;52.382;5.270;2024-03-17T07:48:47;6.82;;;5.32;;
47053;SDS011;32811;52.382;5.270;2024-03-17T07:51:34;6.32;;;5.32;;
47053;SDS011;32811;52.382;5.270;2024-03-17T07:54:00;10.60;;;6.22;;
47053;SDS011;32811;52.382;5.270;2024-03-17T07:56:40;7.82;;;5.57;;
47053;SDS011;32811;52.382;5.270;2024-03-17T07:59:06;6.10;;;5.43;;
47053;SDS011;32811;52.382;5.270;2024-03-17T08:01:40;6.68;;;5.88;;
47053;SDS011;32811;52.382;5.270;2024-03-17T08:04:12;9.10;;;5.78;;
47053;SDS011;32811;52.382;5.270;2024-03-17T08:06:38;11.35;;;6.05;;
47053;SDS011;32811;52.382;5.270;2024-03-17T08:09:22;10.02;;;5.90;;
47053;SDS011;32811;52.382;5.270;2024-03-17T08:11:53;7.15;;;5.30;;
47053;SDS011;32811;52.382;5.270;2024-03-17T08:14:22;8.50;;;5.32;;
47053;SDS011;32811;52.382;5.270;2024-03-17T08:16:57;11.50;;;5.75;;
47053;SDS011;32811;52.382;5.270;2024-03-17T08:19:25;11.43;;;6.00;;
47053;SDS011;32811;52.382;5.270;2024-03-17T08:21:54;7.90;;;5.57;;
47053;SDS011;32811;52.382;5.270;2024-03-17T08:24:29;10.15;;;5.38;;
47053;SDS011;32811;52.382;5.270;2024-03-17T08:26:57;7.43;;;6.22;;
47053;SDS011;32811;52.382;5.270;2024-03-17T08:29:25;8.18;;;5.57;;
47053;SDS011;32811;52.382;5.270;2024-03-17T08:32:01;6.00;;;5.00;;
47053;SDS011;32811;52.382;5.270;2024-03-17T08:35:38;6.22;;;4.88;;
47053;SDS011;32811;52.382;5.270;2024-03-17T08:38:10;10.07;;;5.47;;
47053;SDS011;32811;52.382;5.270;2024-03-17T08:40:36;7.43;;;5.53;;
47053;SDS011;32811;52.382;5.270;2024-03-17T08:43:07;13.63;;;5.60;;
47053;SDS011;32811;52.382;5.270;2024-03-17T08:45:42;13.52;;;7.90;;
47053;SDS011;32811;52.382;5.270;2024-03-17T08:52:37;10.30;;;6.45;;
47053;SDS011;32811;52.382;5.270;2024-03-17T08:55:02;10.18;;;5.97;;
47053;SDS011;32811;52.382;5.270;2024-03-17T08:57:41;8.32;;;5.57;;
47053;SDS011;32811;52.382;5.270;2024-03-17T09:00:07;8.82;;;5.45;;
47053;SDS011;32811;52.382;5.270;2024-03-17T09:02:44;9.02;;;6.40;;
47053;SDS011;32811;52.382;5.270;2024-03-17T09:08:24;8.98;;;6.03;;
47053;SDS011;32811;52.382;5.270;2024-03-17T09:11:06;7.85;;;6.53;;
47053;SDS011;32811;52.382;5.270;2024-03-17T09:14:08;6.75;;;5.38;;
47053;SDS011;32811;52.382;5.270;2024-03-17T09:16:48;8.77;;;4.40;;
47053;SDS011;32811;52.382;5.270;2024-03-17T09:19:14;8.00;;;5.30;;
47053;SDS011;32811;52.382;5.270;2024-03-17T09:22:04;10.38;;;5.25;;
47053;SDS011;32811;52.382;5.270;2024-03-17T09:24:35;8.38;;;5.40;;
47053;SDS011;32811;52.382;5.270;2024-03-17T09:27:21;6.97;;;5.30;;
47053;SDS011;32811;52.382;5.270;2024-03-17T09:29:53;11.93;;;7.53;;
47053;SDS011;32811;52.382;5.270;2024-03-17T09:33:00;8.23;;;7.35;;
47053;SDS011;32811;52.382;5.270;2024-03-17T09:35:41;6.03;;;5.10;;
47053;SDS011;32811;52.382;5.270;2024-03-17T09:38:07;9.00;;;5.60;;
47053;SDS011;32811;52.382;5.270;2024-03-17T09:40:45;6.00;;;4.80;;
47053;SDS011;32811;52.382;5.270;2024-03-17T09:43:35;7.47;;;5.38;;
47053;SDS011;32811;52.382;5.270;2024-03-17T09:46:26;11.43;;;6.50;;
47053;SDS011;32811;52.382;5.270;2024-03-17T09:49:14;8.73;;;5.90;;
47053;SDS011;32811;52.382;5.270;2024-03-17T09:54:58;5.85;;;4.65;;
47053;SDS011;32811;52.382;5.270;2024-03-17T09:57:46;6.47;;;5.03;;
47053;SDS011;32811;52.382;5.270;2024-03-17T10:00:13;9.63;;;5.68;;
47053;SDS011;32811;52.382;5.270;2024-03-17T10:02:43;9.93;;;5.47;;
47053;SDS011;32811;52.382;5.270;2024-03-17T10:05:24;7.68;;;5.53;;
47053;SDS011;32811;52.382;5.270;2024-03-17T10:07:53;7.05;;;5.55;;
47053;SDS011;32811;52.382;5.270;2024-03-17T10:10:21;10.95;;;5.32;;
47053;SDS011;32811;52.382;5.270;2024-03-17T10:12:59;20.27;;;8.65;;
47053;SDS011;32811;52.382;5.270;2024-03-17T10:15:28;11.20;;;6.97;;
47053;SDS011;32811;52.382;5.270;2024-03-17T10:17:54;6.68;;;5.05;;
47053;SDS011;32811;52.382;5.270;2024-03-17T10:20:21;11.40;;;5.78;;
47053;SDS011;32811;52.382;5.270;2024-03-17T10:23:13;9.15;;;5.47;;
47053;SDS011;32811;52.382;5.270;2024-03-17T10:25:58;7.20;;;5.13;;
47053;SDS011;32811;52.382;5.270;2024-03-17T10:28:26;6.95;;;4.93;;
47053;SDS011;32811;52.382;5.270;2024-03-17T10:31:04;7.82;;;5.72;;
47053;SDS011;32811;52.382;5.270;2024-03-17T10:33:45;7.65;;;5.32;;
47053;SDS011;32811;52.382;5.270;2024-03-17T10:36:17;6.18;;;4.85;;
47053;SDS011;32811;52.382;5.270;2024-03-17T10:38:51;9.50;;;5.35;;
47053;SDS011;32811;52.382;5.270;2024-03-17T10:41:18;6.63;;;4.68;;
47053;SDS011;32811;52.382;5.270;2024-03-17T10:43:45;7.93;;;4.57;;
47053;SDS011;32811;52.382;5.270;2024-03-17T10:46:11;5.82;;;4.68;;
47053;SDS011;32811;52.382;5.270;2024-03-17T10:48:46;5.80;;;4.97;;
47053;SDS011;32811;52.382;5.270;2024-03-17T10:51:15;12.88;;;5.35;;
47053;SDS011;32811;52.382;5.270;2024-03-17T10:53:44;4.72;;;4.25;;
47053;SDS011;32811;52.382;5.270;2024-03-17T10:58:53;8.38;;;4.85;;
47053;SDS011;32811;52.382;5.270;2024-03-17T11:01:22;8.82;;;5.82;;
47053;SDS011;32811;52.382;5.270;2024-03-17T11:03:55;5.93;;;4.57;;
47053;SDS011;32811;52.382;5.270;2024-03-17T11:06:22;7.45;;;4.78;;
47053;SDS011;32811;52.382;5.270;2024-03-17T11:08:48;5.28;;;4.25;;
47053;SDS011;32811;52.382;5.270;2024-03-17T11:11:14;11.95;;;4.43;;
47053;SDS011;32811;52.382;5.270;2024-03-17T11:14:17;9.27;;;4.65;;
47053;SDS011;32811;52.382;5.270;2024-03-17T11:16:50;6.35;;;4.07;;
47053;SDS011;32811;52.382;5.270;2024-03-17T11:19:16;6.15;;;4.80;;
47053;SDS011;32811;52.382;5.270;2024-03-17T11:21:42;5.13;;;4.13;;
47053;SDS011;32811;52.382;5.270;2024-03-17T11:24:19;7.80;;;5.00;;
47053;SDS011;32811;52.382;5.270;2024-03-17T11:26:46;9.32;;;4.30;;
47053;SDS011;32811;52.382;5.270;2024-03-17T11:29:44;9.50;;;5.38;;
47053;SDS011;32811;52.382;5.270;2024-03-17T11:32:24;7.50;;;4.45;;
47053;SDS011;32811;52.382;5.270;2024-03-17T11:34:50;5.40;;;4.55;;
47053;SDS011;32811;52.382;5.270;2024-03-17T11:37:42;6.18;;;4.20;;
47053;SDS011;32811;52.382;5.270;2024-03-17T11:40:26;9.88;;;5.22;;
47053;SDS011;32811;52.382;5.270;2024-03-17T11:43:01;6.57;;;3.40;;
47053;SDS011;32811;52.382;5.270;2024-03-17T11:45:35;6.68;;;4.47;;
47053;SDS011;32811;52.382;5.270;2024-03-17T11:48:12;6.05;;;4.00;;
47053;SDS011;32811;52.382;5.270;2024-03-17T11:50:40;10.30;;;4.60;;
47053;SDS011;32811;52.382;5.270;2024-03-17T11:53:14;6.15;;;5.10;;
47053;SDS011;32811;52.382;5.270;2024-03-17T11:55:47;7.80;;;5.13;;
47053;SDS011;32811;52.382;5.270;2024-03-17T11:58:16;10.90;;;4.82;;
47053;SDS011;32811;52.382;5.270;2024-03-17T12:00:42;10.13;;;5.60;;
47053;SDS011;32811;52.382;5.270;2024-03-17T12:03:09;9.40;;;4.70;;
47053;SDS011;32811;52.382;5.270;2024-03-17T12:05:39;9.75;;;4.78;;
47053;SDS011;32811;52.382;5.270;2024-03-17T12:08:18;7.88;;;4.25;;
47053;SDS011;32811;52.382;5.270;2024-03-17T12:10:48;7.55;;;3.83;;
47053;SDS011;32811;52.382;5.270;2024-03-17T12:13:15;5.88;;;4.30;;
47053;SDS011;32811;52.382;5.270;2024-03-17T12:15:44;7.20;;;4.03;;
47053;SDS011;32811;52.382;5.270;2024-03-17T12:18:22;6.50;;;3.35;;
47053;SDS011;32811;52.382;5.270;2024-03-17T12:20:51;7.53;;;3.95;;
47053;SDS011;32811;52.382;5.270;2024-03-17T12:23:17;7.32;;;3.80;;
47053;SDS011;32811;52.382;5.270;2024-03-17T12:25:50;8.20;;;3.78;;
47053;SDS011;32811;52.382;5.270;2024-03-17T12:28:23;4.28;;;2.92;;
47053;SDS011;32811;52.382;5.270;2024-03-17T12:30:49;7.72;;;3.35;;
47053;SDS011;32811;52.382;5.270;2024-03-17T12:33:15;7.10;;;3.33;;
47053;SDS011;32811;52.382;5.270;2024-03-17T12:35:41;6.15;;;4.03;;
47053;SDS011;32811;52.382;5.270;2024-03-17T12:38:25;3.88;;;3.38;;
47053;SDS011;32811;52.382;5.270;2024-03-17T12:40:51;5.15;;;3.40;;
47053;SDS011;32811;52.382;5.270;2024-03-17T12:43:17;4.13;;;2.90;;
47053;SDS011;32811;52.382;5.270;2024-03-17T12:45:48;6.53;;;3.80;;
47053;SDS011;32811;52.382;5.270;2024-03-17T12:48:29;4.75;;;3.22;;
47053;SDS011;32811;52.382;5.270;2024-03-17T12:51:17;6.85;;;3.33;;
47053;SDS011;32811;52.382;5.270;2024-03-17T12:53:49;6.07;;;3.67;;
47053;SDS011;32811;52.382;5.270;2024-03-17T12:56:22;6.68;;;3.58;;
47053;SDS011;32811;52.382;5.270;2024-03-17T12:59:13;7.20;;;3.80;;
47053;SDS011;32811;52.382;5.270;2024-03-17T13:02:11;14.48;;;4.18;;
47053;SDS011;32811;52.382;5.270;2024-03-17T13:04:41;6.45;;;3.70;;
47053;SDS011;32811;52.382;5.270;2024-03-17T13:07:18;7.18;;;3.72;;
47053;SDS011;32811;52.382;5.270;2024-03-17T13:09:57;7.07;;;3.78;;
47053;SDS011;32811;52.382;5.270;2024-03-17T13:12:23;5.10;;;3.80;;
47053;SDS011;32811;52.382;5.270;2024-03-17T13:14:53;9.63;;;3.95;;
47053;SDS011;32811;52.382;5.270;2024-03-17T13:17:39;11.68;;;4.05;;
47053;SDS011;32811;52.382;5.270;2024-03-17T13:20:08;6.28;;;3.95;;
47053;SDS011;32811;52.382;5.270;2024-03-17T13:22:38;7.18;;;4.10;;
47053;SDS011;32811;52.382;5.270;2024-03-17T13:25:13;8.18;;;4.05;;
47053;SDS011;32811;52.382;5.270;2024-03-17T13:27:50;4.75;;;3.75;;
47053;SDS011;32811;52.382;5.270;2024-03-17T13:30:27;10.18;;;3.67;;
47053;SDS011;32811;52.382;5.270;2024-03-17T13:32:56;4.20;;;3.80;;
47053;SDS011;32811;52.382;5.270;2024-03-17T13:35:38;5.93;;;4.05;;
47053;SDS011;32811;52.382;5.270;2024-03-17T13:38:05;8.50;;;4.43;;
47053;SDS011;32811;52.382;5.270;2024-03-17T13:40:35;8.23;;;4.40;;
47053;SDS011;32811;52.382;5.270;2024-03-17T13:43:13;5.15;;;4.15;;
47053;SDS011;32811;52.382;5.270;2024-03-17T13:46:01;4.20;;;3.42;;
47053;SDS011;32811;52.382;5.270;2024-03-17T13:48:36;6.03;;;3.85;;
47053;SDS011;32811;52.382;5.270;2024-03-17T13:51:40;6.38;;;3.75;;
47053;SDS011;32811;52.382;5.270;2024-03-17T13:54:08;7.00;;;4.15;;
47053;SDS011;32811;52.382;5.270;2024-03-17T13:56:37;8.48;;;4.32;;
47053;SDS011;32811;52.382;5.270;2024-03-17T13:59:05;7.03;;;4.38;;
47053;SDS011;32811;52.382;5.270;2024-03-17T14:01:31;5.68;;;4.25;;
47053;SDS011;32811;52.382;5.270;2024-03-17T14:04:02;6.78;;;6.07;;
47053;SDS011;32811;52.382;5.270;2024-03-17T14:06:30;9.43;;;4.72;;
47053;SDS011;32811;52.382;5.270;2024-03-17T14:08:59;6.45;;;4.63;;
47053;SDS011;32811;52.382;5.270;2024-03-17T14:14:38;6.90;;;4.68;;
47053;SDS011;32811;52.382;5.270;2024-03-17T14:17:04;8.55;;;4.93;;
47053;SDS011;32811;52.382;5.270;2024-03-17T14:19:30;9.60;;;4.72;;
47053;SDS011;32811;52.382;5.270;2024-03-17T14:21:59;7.18;;;4.97;;
47053;SDS011;32811;52.382;5.270;2024-03-17T14:24:24;7.95;;;4.30;;
47053;SDS011;32811;52.382;5.270;2024-03-17T14:26:50;7.95;;;5.85;;
47053;SDS011;32811;52.382;5.270;2024-03-17T14:29:18;9.88;;;4.90;;
47053;SDS011;32811;52.382;5.270;2024-03-17T14:31:53;6.20;;;4.65;;
47053;SDS011;32811;52.382;5.270;2024-03-17T14:34:18;8.75;;;5.10;;
47053;SDS011;32811;52.382;5.270;2024-03-17T14:36:44;7.22;;;4.60;;
47053;SDS011;32811;52.382;5.270;2024-03-17T14:39:10;9.20;;;4.75;;
47053;SDS011;32811;52.382;5.270;2024-03-17T14:41:42;9.55;;;4.82;;
47053;SDS011;32811;52.382;5.270;2024-03-17T14:44:25;7.47;;;4.63;;
47053;SDS011;32811;52.382;5.270;2024-03-17T14:46:57;9.75;;;4.95;;
47053;SDS011;32811;52.382;5.270;2024-03-17T14:49:22;8.85;;;4.35;;
47053;SDS011;32811;52.382;5.270;2024-03-17T14:51:51;6.85;;;4.85;;
47053;SDS011;32811;52.382;5.270;2024-03-17T14:54:19;11.43;;;5.00;;
47053;SDS011;32811;52.382;5.270;2024-03-17T14:56:45;5.55;;;4.10;;
47053;SDS011;32811;52.382;5.270;2024-03-17T14:59:14;7.82;;;4.82;;
47053;SDS011;32811;52.382;5.270;2024-03-17T15:01:46;7.50;;;4.85;;
47053;SDS011;32811;52.382;5.270;2024-03-17T15:04:22;6.55;;;4.57;;
47053;SDS011;32811;52.382;5.270;2024-03-17T15:06:52;6.32;;;4.93;;
47053;SDS011;32811;52.382;5.270;2024-03-17T15:09:19;6.40;;;4.63;;
47053;SDS011;32811;52.382;5.270;2024-03-17T15:11:48;7.35;;;3.97;;
47053;SDS011;32811;52.382;5.270;2024-03-17T15:14:13;8.57;;;4.82;;
47053;SDS011;32811;52.382;5.270;2024-03-17T15:16:42;5.90;;;4.47;;
47053;SDS011;32811;52.382;5.270;2024-03-17T15:19:09;7.47;;;4.60;;
47053;SDS011;32811;52.382;5.270;2024-03-17T15:21:34;8.32;;;4.65;;
47053;SDS011;32811;52.382;5.270;2024-03-17T15:24:01;6.05;;;5.55;;
47053;SDS011;32811;52.382;5.270;2024-03-17T15:26:29;7.10;;;4.32;;
47053;SDS011;32811;52.382;5.270;2024-03-17T15:29:00;9.35;;;4.78;;
47053;SDS011;32811;52.382;5.270;2024-03-17T15:31:38;5.25;;;4.55;;